sensor_id;sensor_type;location;lat;lon;timestamp;P1;durP1;ratioP1;P2;durP2;ratioP2
16770;SDS011;8503;52.472;13.344;2022-09-12T00:00:07;3.80;;;1.90;;
16770;SDS011;8503;52.472;13.344;2022-09-12T00:01:30;2.60;;;1.83;;
16770;SDS011;8503;52.472;13.344;2022-09-12T00:02:55;5.45;;;2.05;;
16770;SDS011;8503;52.472;13.344;2022-09-12T00:04:17;2.97;;;1.70;;
16770;SDS011;8503;52.472;13.344;2022-09-12T00:05:41;3.05;;;1.80;;
16770;SDS011;8503;52.472;13.344;2022-09-12T00:07:04;2.38;;;1.67;;
16770;SDS011;8503;52.472;13.344;2022-09-12T00:08:27;3.90;;;2.00;;
16770;SDS011;8503;52.472;13.344;2022-09-12T00:09:50;7.07;;;2.20;;
16770;SDS011;8503;52.472;13.344;2022-09-12T00:11:13;2.92;;;1.92;;
16770;SDS011;8503;52.472;13.344;2022-09-12T00:12:36;3.22;;;2.10;;
16770;SDS011;8503;52.472;13.344;2022-09-12T00:13:59;3.80;;;1.60;;
16770;SDS011;8503;52.472;13.344;2022-09-12T00:15:23;2.60;;;1.70;;
16770;SDS011;8503;52.472;13.344;2022-09-12T00:16:46;2.75;;;2.08;;
16770;SDS011;8503;52.472;13.344;2022-09-12T00:18:13;2.80;;;2.03;;
16770;SDS011;8503;52.472;13.344;2022-09-12T00:19:36;3.63;;;2.28;;
16770;SDS011;8503;52.472;13.344;2022-09-12T00:21:01;2.60;;;1.73;;
16770;SDS011;8503;52.472;13.344;2022-09-12T00:22:24;3.67;;;1.73;;
16770;SDS011;8503;52.472;13.344;2022-09-12T00:23:48;3.13;;;2.25;;
16770;SDS011;8503;52.472;13.344;2022-09-12T00:25:12;7.75;;;2.03;;
16770;SDS011;8503;52.472;13.344;2022-09-12T00:26:35;4.97;;;1.80;;
16770;SDS011;8503;52.472;13.344;2022-09-12T00:27:59;4.38;;;2.15;;
16770;SDS011;8503;52.472;13.344;2022-09-12T00:29:21;2.55;;;1.85;;
16770;SDS011;8503;52.472;13.344;2022-09-12T00:30:45;3.00;;;1.75;;
16770;SDS011;8503;52.472;13.344;2022-09-12T00:32:08;3.05;;;1.90;;
16770;SDS011;8503;52.472;13.344;2022-09-12T00:33:33;2.45;;;1.98;;
16770;SDS011;8503;52.472;13.344;2022-09-12T00:34:56;2.47;;;1.90;;
16770;SDS011;8503;52.472;13.344;2022-09-12T00:36:21;3.53;;;2.05;;
16770;SDS011;8503;52.472;13.344;2022-09-12T00:37:44;2.00;;;1.77;;
16770;SDS011;8503;52.472;13.344;2022-09-12T00:39:07;2.15;;;1.83;;
16770;SDS011;8503;52.472;13.344;2022-09-12T00:40:31;6.13;;;2.55;;
16770;SDS011;8503;52.472;13.344;2022-09-12T00:41:54;4.68;;;2.50;;
16770;SDS011;8503;52.472;13.344;2022-09-12T00:43:32;5.28;;;2.17;;
16770;SDS011;8503;52.472;13.344;2022-09-12T00:44:58;4.50;;;1.80;;
16770;SDS011;8503;52.472;13.344;2022-09-12T00:46:25;2.90;;;2.03;;
16770;SDS011;8503;52.472;13.344;2022-09-12T00:47:54;4.20;;;2.10;;
16770;SDS011;8503;52.472;13.344;2022-09-12T00:49:20;4.15;;;2.15;;
16770;SDS011;8503;52.472;13.344;2022-09-12T00:50:44;3.67;;;2.22;;
16770;SDS011;8503;52.472;13.344;2022-09-12T00:52:09;8.40;;;2.92;;
16770;SDS011;8503;52.472;13.344;2022-09-12T00:53:33;3.63;;;2.05;;
16770;SDS011;8503;52.472;13.344;2022-09-12T00:54:57;4.78;;;2.50;;
16770;SDS011;8503;52.472;13.344;2022-09-12T00:56:23;3.63;;;2.20;;
16770;SDS011;8503;52.472;13.344;2022-09-12T00:57:48;2.50;;;2.22;;
16770;SDS011;8503;52.472;13.344;2022-09-12T00:59:16;3.35;;;2.42;;
16770;SDS011;8503;52.472;13.344;2022-09-12T01:00:41;3.75;;;2.10;;
16770;SDS011;8503;52.472;13.344;2022-09-12T01:02:05;3.63;;;2.22;;
16770;SDS011;8503;52.472;13.344;2022-09-12T01:03:27;5.20;;;2.03;;
16770;SDS011;8503;52.472;13.344;2022-09-12T01:04:52;3.33;;;2.42;;
16770;SDS011;8503;52.472;13.344;2022-09-12T01:06:17;5.03;;;2.30;;
16770;SDS011;8503;52.472;13.344;2022-09-12T01:07:43;4.68;;;2.28;;
16770;SDS011;8503;52.472;13.344;2022-09-12T01:09:08;6.18;;;2.40;;
16770;SDS011;8503;52.472;13.344;2022-09-12T01:10:34;4.25;;;2.33;;
16770;SDS011;8503;52.472;13.344;2022-09-12T01:12:00;4.00;;;2.38;;
16770;SDS011;8503;52.472;13.344;2022-09-12T01:13:24;3.83;;;1.98;;
16770;SDS011;8503;52.472;13.344;2022-09-12T01:14:48;5.22;;;2.30;;
16770;SDS011;8503;52.472;13.344;2022-09-12T01:16:10;3.22;;;1.98;;
16770;SDS011;8503;52.472;13.344;2022-09-12T01:17:36;5.95;;;2.10;;
16770;SDS011;8503;52.472;13.344;2022-09-12T01:19:07;4.10;;;2.10;;
16770;SDS011;8503;52.472;13.344;2022-09-12T01:20:45;5.85;;;2.30;;
16770;SDS011;8503;52.472;13.344;2022-09-12T01:22:22;4.93;;;2.60;;
16770;SDS011;8503;52.472;13.344;2022-09-12T01:25:59;5.80;;;2.17;;
16770;SDS011;8503;52.472;13.344;2022-09-12T01:27:34;3.78;;;2.22;;
16770;SDS011;8503;52.472;13.344;2022-09-12T01:29:10;3.03;;;2.20;;
16770;SDS011;8503;52.472;13.344;2022-09-12T01:30:44;4.15;;;2.38;;
16770;SDS011;8503;52.472;13.344;2022-09-12T01:32:09;2.85;;;1.77;;
16770;SDS011;8503;52.472;13.344;2022-09-12T01:33:46;4.97;;;2.20;;
16770;SDS011;8503;52.472;13.344;2022-09-12T01:35:18;4.68;;;2.35;;
16770;SDS011;8503;52.472;13.344;2022-09-12T01:36:47;3.00;;;2.08;;
16770;SDS011;8503;52.472;13.344;2022-09-12T01:38:17;6.38;;;2.30;;
16770;SDS011;8503;52.472;13.344;2022-09-12T01:39:45;4.57;;;2.65;;
16770;SDS011;8503;52.472;13.344;2022-09-12T01:41:13;3.05;;;2.38;;
16770;SDS011;8503;52.472;13.344;2022-09-12T01:42:42;3.65;;;2.40;;
16770;SDS011;8503;52.472;13.344;2022-09-12T01:44:13;2.75;;;2.20;;
16770;SDS011;8503;52.472;13.344;2022-09-12T01:45:44;3.92;;;2.42;;
16770;SDS011;8503;52.472;13.344;2022-09-12T01:47:11;5.15;;;2.45;;
16770;SDS011;8503;52.472;13.344;2022-09-12T01:48:37;2.60;;;2.00;;
16770;SDS011;8503;52.472;13.344;2022-09-12T01:50:05;3.17;;;2.42;;
16770;SDS011;8503;52.472;13.344;2022-09-12T01:51:31;4.68;;;2.45;;
16770;SDS011;8503;52.472;13.344;2022-09-12T01:52:59;3.45;;;2.20;;
16770;SDS011;8503;52.472;13.344;2022-09-12T01:54:25;6.50;;;2.30;;
16770;SDS011;8503;52.472;13.344;2022-09-12T01:55:53;6.22;;;2.20;;
16770;SDS011;8503;52.472;13.344;2022-09-12T01:57:19;4.85;;;2.47;;
16770;SDS011;8503;52.472;13.344;2022-09-12T01:58:46;4.15;;;2.50;;
16770;SDS011;8503;52.472;13.344;2022-09-12T02:00:11;2.50;;;2.03;;
16770;SDS011;8503;52.472;13.344;2022-09-12T02:01:37;4.45;;;2.65;;
16770;SDS011;8503;52.472;13.344;2022-09-12T02:03:06;3.70;;;2.40;;
16770;SDS011;8503;52.472;13.344;2022-09-12T02:04:33;3.35;;;2.50;;
16770;SDS011;8503;52.472;13.344;2022-09-12T02:05:59;3.72;;;2.30;;
16770;SDS011;8503;52.472;13.344;2022-09-12T02:07:25;3.85;;;2.58;;
16770;SDS011;8503;52.472;13.344;2022-09-12T02:08:53;4.03;;;2.47;;
16770;SDS011;8503;52.472;13.344;2022-09-12T02:10:20;4.28;;;2.75;;
16770;SDS011;8503;52.472;13.344;2022-09-12T02:11:49;4.05;;;2.40;;
16770;SDS011;8503;52.472;13.344;2022-09-12T02:13:14;4.78;;;2.58;;
16770;SDS011;8503;52.472;13.344;2022-09-12T02:14:41;3.00;;;2.22;;
16770;SDS011;8503;52.472;13.344;2022-09-12T02:16:08;3.42;;;2.40;;
16770;SDS011;8503;52.472;13.344;2022-09-12T02:17:35;3.95;;;2.60;;
16770;SDS011;8503;52.472;13.344;2022-09-12T02:19:02;3.15;;;2.45;;
16770;SDS011;8503;52.472;13.344;2022-09-12T02:20:30;4.82;;;2.85;;
16770;SDS011;8503;52.472;13.344;2022-09-12T02:22:12;3.85;;;2.63;;
16770;SDS011;8503;52.472;13.344;2022-09-12T02:23:40;8.45;;;3.15;;
16770;SDS011;8503;52.472;13.344;2022-09-12T02:25:05;3.50;;;2.33;;
16770;SDS011;8503;52.472;13.344;2022-09-12T02:26:31;3.97;;;2.63;;
16770;SDS011;8503;52.472;13.344;2022-09-12T02:27:57;4.82;;;2.58;;
16770;SDS011;8503;52.472;13.344;2022-09-12T02:29:23;6.93;;;2.67;;
16770;SDS011;8503;52.472;13.344;2022-09-12T02:30:49;5.50;;;2.65;;
16770;SDS011;8503;52.472;13.344;2022-09-12T02:32:15;6.30;;;3.17;;
16770;SDS011;8503;52.472;13.344;2022-09-12T02:33:50;4.60;;;3.00;;
16770;SDS011;8503;52.472;13.344;2022-09-12T02:35:19;5.45;;;2.55;;
16770;SDS011;8503;52.472;13.344;2022-09-12T02:36:47;2.83;;;2.40;;
16770;SDS011;8503;52.472;13.344;2022-09-12T02:38:16;3.42;;;2.70;;
16770;SDS011;8503;52.472;13.344;2022-09-12T02:39:45;5.70;;;2.60;;
16770;SDS011;8503;52.472;13.344;2022-09-12T02:41:09;5.03;;;2.88;;
16770;SDS011;8503;52.472;13.344;2022-09-12T02:42:32;4.10;;;2.67;;
16770;SDS011;8503;52.472;13.344;2022-09-12T02:43:55;4.82;;;2.97;;
16770;SDS011;8503;52.472;13.344;2022-09-12T02:45:18;5.53;;;2.75;;
16770;SDS011;8503;52.472;13.344;2022-09-12T02:46:44;3.97;;;2.70;;
16770;SDS011;8503;52.472;13.344;2022-09-12T02:48:10;3.67;;;2.53;;
16770;SDS011;8503;52.472;13.344;2022-09-12T02:49:36;3.72;;;2.80;;
16770;SDS011;8503;52.472;13.344;2022-09-12T02:50:59;5.00;;;3.20;;
16770;SDS011;8503;52.472;13.344;2022-09-12T02:52:22;5.93;;;2.95;;
16770;SDS011;8503;52.472;13.344;2022-09-12T02:53:47;3.17;;;2.33;;
16770;SDS011;8503;52.472;13.344;2022-09-12T02:55:11;3.50;;;2.67;;
16770;SDS011;8503;52.472;13.344;2022-09-12T02:56:35;10.30;;;3.55;;
16770;SDS011;8503;52.472;13.344;2022-09-12T02:58:01;4.80;;;3.25;;
16770;SDS011;8503;52.472;13.344;2022-09-12T02:59:27;3.05;;;2.70;;
16770;SDS011;8503;52.472;13.344;2022-09-12T03:00:52;4.90;;;2.90;;
16770;SDS011;8503;52.472;13.344;2022-09-12T03:02:24;8.38;;;3.30;;
16770;SDS011;8503;52.472;13.344;2022-09-12T03:04:02;3.45;;;2.65;;
16770;SDS011;8503;52.472;13.344;2022-09-12T03:05:39;5.13;;;2.60;;
16770;SDS011;8503;52.472;13.344;2022-09-12T03:07:12;4.20;;;3.25;;
16770;SDS011;8503;52.472;13.344;2022-09-12T03:08:49;4.72;;;3.10;;
16770;SDS011;8503;52.472;13.344;2022-09-12T03:10:18;3.38;;;2.42;;
16770;SDS011;8503;52.472;13.344;2022-09-12T03:11:49;3.20;;;2.90;;
16770;SDS011;8503;52.472;13.344;2022-09-12T03:13:23;3.45;;;2.85;;
16770;SDS011;8503;52.472;13.344;2022-09-12T03:16:38;4.60;;;3.03;;
16770;SDS011;8503;52.472;13.344;2022-09-12T03:18:12;3.35;;;2.83;;
16770;SDS011;8503;52.472;13.344;2022-09-12T03:19:49;5.88;;;3.05;;
16770;SDS011;8503;52.472;13.344;2022-09-12T03:21:18;3.72;;;2.90;;
16770;SDS011;8503;52.472;13.344;2022-09-12T03:22:46;6.40;;;3.15;;
16770;SDS011;8503;52.472;13.344;2022-09-12T03:24:16;3.28;;;2.92;;
16770;SDS011;8503;52.472;13.344;2022-09-12T03:25:41;4.00;;;3.13;;
16770;SDS011;8503;52.472;13.344;2022-09-12T03:27:07;5.07;;;3.05;;
16770;SDS011;8503;52.472;13.344;2022-09-12T03:28:32;3.85;;;2.60;;
16770;SDS011;8503;52.472;13.344;2022-09-12T03:29:58;4.03;;;3.05;;
16770;SDS011;8503;52.472;13.344;2022-09-12T03:31:21;3.65;;;2.80;;
16770;SDS011;8503;52.472;13.344;2022-09-12T03:32:45;3.17;;;2.88;;
16770;SDS011;8503;52.472;13.344;2022-09-12T03:34:09;3.92;;;2.95;;
16770;SDS011;8503;52.472;13.344;2022-09-12T03:35:34;5.93;;;3.30;;
16770;SDS011;8503;52.472;13.344;2022-09-12T03:36:59;3.90;;;2.90;;
16770;SDS011;8503;52.472;13.344;2022-09-12T03:38:23;4.68;;;2.90;;
16770;SDS011;8503;52.472;13.344;2022-09-12T03:39:45;3.75;;;3.30;;
16770;SDS011;8503;52.472;13.344;2022-09-12T03:41:09;5.70;;;3.05;;
16770;SDS011;8503;52.472;13.344;2022-09-12T03:42:31;6.97;;;3.60;;
16770;SDS011;8503;52.472;13.344;2022-09-12T03:43:54;4.18;;;2.55;;
16770;SDS011;8503;52.472;13.344;2022-09-12T03:45:17;4.70;;;3.05;;
16770;SDS011;8503;52.472;13.344;2022-09-12T03:46:40;6.18;;;3.15;;
16770;SDS011;8503;52.472;13.344;2022-09-12T03:48:04;4.47;;;3.00;;
16770;SDS011;8503;52.472;13.344;2022-09-12T03:49:28;5.85;;;3.22;;
16770;SDS011;8503;52.472;13.344;2022-09-12T03:50:50;3.42;;;3.03;;
16770;SDS011;8503;52.472;13.344;2022-09-12T03:52:15;3.20;;;2.67;;
16770;SDS011;8503;52.472;13.344;2022-09-12T03:53:37;5.63;;;3.40;;
16770;SDS011;8503;52.472;13.344;2022-09-12T03:55:01;4.95;;;3.35;;
16770;SDS011;8503;52.472;13.344;2022-09-12T03:56:23;5.95;;;3.30;;
16770;SDS011;8503;52.472;13.344;2022-09-12T03:57:47;4.03;;;3.00;;
16770;SDS011;8503;52.472;13.344;2022-09-12T03:59:12;6.85;;;3.30;;
16770;SDS011;8503;52.472;13.344;2022-09-12T04:00:37;3.92;;;3.45;;
16770;SDS011;8503;52.472;13.344;2022-09-12T04:02:01;3.88;;;2.85;;
16770;SDS011;8503;52.472;13.344;2022-09-12T04:03:24;4.53;;;2.60;;
16770;SDS011;8503;52.472;13.344;2022-09-12T04:04:48;3.00;;;2.70;;
16770;SDS011;8503;52.472;13.344;2022-09-12T04:06:12;3.78;;;3.08;;
16770;SDS011;8503;52.472;13.344;2022-09-12T04:07:37;4.63;;;3.05;;
16770;SDS011;8503;52.472;13.344;2022-09-12T04:09:00;5.20;;;3.00;;
16770;SDS011;8503;52.472;13.344;2022-09-12T04:10:23;5.38;;;3.53;;
16770;SDS011;8503;52.472;13.344;2022-09-12T04:11:46;3.95;;;2.90;;
16770;SDS011;8503;52.472;13.344;2022-09-12T04:13:09;6.45;;;3.10;;
16770;SDS011;8503;52.472;13.344;2022-09-12T04:14:33;4.60;;;2.67;;
16770;SDS011;8503;52.472;13.344;2022-09-12T04:15:55;5.57;;;3.38;;
16770;SDS011;8503;52.472;13.344;2022-09-12T04:17:19;6.75;;;3.13;;
16770;SDS011;8503;52.472;13.344;2022-09-12T04:18:42;4.15;;;3.30;;
16770;SDS011;8503;52.472;13.344;2022-09-12T04:20:06;4.72;;;3.33;;
16770;SDS011;8503;52.472;13.344;2022-09-12T04:21:29;3.90;;;3.42;;
16770;SDS011;8503;52.472;13.344;2022-09-12T04:22:55;4.65;;;3.55;;
16770;SDS011;8503;52.472;13.344;2022-09-12T04:24:18;4.32;;;3.63;;
16770;SDS011;8503;52.472;13.344;2022-09-12T04:25:41;4.22;;;3.33;;
16770;SDS011;8503;52.472;13.344;2022-09-12T04:27:04;5.25;;;3.63;;
16770;SDS011;8503;52.472;13.344;2022-09-12T04:28:28;6.28;;;3.45;;
16770;SDS011;8503;52.472;13.344;2022-09-12T04:29:52;6.57;;;3.85;;
16770;SDS011;8503;52.472;13.344;2022-09-12T04:31:16;4.78;;;3.40;;
16770;SDS011;8503;52.472;13.344;2022-09-12T04:32:40;5.70;;;3.60;;
16770;SDS011;8503;52.472;13.344;2022-09-12T04:34:04;4.95;;;3.50;;
16770;SDS011;8503;52.472;13.344;2022-09-12T04:35:27;3.63;;;3.25;;
16770;SDS011;8503;52.472;13.344;2022-09-12T04:36:50;6.70;;;3.65;;
16770;SDS011;8503;52.472;13.344;2022-09-12T04:38:15;7.60;;;3.88;;
16770;SDS011;8503;52.472;13.344;2022-09-12T04:39:37;6.32;;;3.70;;
16770;SDS011;8503;52.472;13.344;2022-09-12T04:41:08;5.60;;;3.80;;
16770;SDS011;8503;52.472;13.344;2022-09-12T04:42:31;8.85;;;3.90;;
16770;SDS011;8503;52.472;13.344;2022-09-12T04:43:55;5.85;;;3.80;;
16770;SDS011;8503;52.472;13.344;2022-09-12T04:45:19;7.78;;;3.53;;
16770;SDS011;8503;52.472;13.344;2022-09-12T04:46:43;5.10;;;3.50;;
16770;SDS011;8503;52.472;13.344;2022-09-12T04:48:08;3.78;;;3.15;;
16770;SDS011;8503;52.472;13.344;2022-09-12T04:49:30;5.35;;;3.85;;
16770;SDS011;8503;52.472;13.344;2022-09-12T04:50:54;4.93;;;3.55;;
16770;SDS011;8503;52.472;13.344;2022-09-12T04:52:16;7.88;;;3.70;;
16770;SDS011;8503;52.472;13.344;2022-09-12T04:53:41;7.85;;;3.85;;
16770;SDS011;8503;52.472;13.344;2022-09-12T04:55:08;4.53;;;3.58;;
16770;SDS011;8503;52.472;13.344;2022-09-12T04:56:31;9.73;;;4.47;;
16770;SDS011;8503;52.472;13.344;2022-09-12T04:57:57;9.52;;;4.45;;
16770;SDS011;8503;52.472;13.344;2022-09-12T04:59:22;6.57;;;4.05;;
16770;SDS011;8503;52.472;13.344;2022-09-12T05:00:45;5.38;;;3.90;;
16770;SDS011;8503;52.472;13.344;2022-09-12T05:02:08;4.40;;;3.30;;
16770;SDS011;8503;52.472;13.344;2022-09-12T05:03:31;6.22;;;4.30;;
16770;SDS011;8503;52.472;13.344;2022-09-12T05:04:54;8.10;;;4.45;;
16770;SDS011;8503;52.472;13.344;2022-09-12T05:06:19;4.53;;;3.95;;
16770;SDS011;8503;52.472;13.344;2022-09-12T05:07:42;6.20;;;3.55;;
16770;SDS011;8503;52.472;13.344;2022-09-12T05:09:08;4.68;;;3.40;;
16770;SDS011;8503;52.472;13.344;2022-09-12T05:10:34;7.10;;;4.10;;
16770;SDS011;8503;52.472;13.344;2022-09-12T05:11:56;5.93;;;3.55;;
16770;SDS011;8503;52.472;13.344;2022-09-12T05:13:25;5.13;;;4.30;;
16770;SDS011;8503;52.472;13.344;2022-09-12T05:14:49;5.43;;;3.05;;
16770;SDS011;8503;52.472;13.344;2022-09-12T05:16:13;3.88;;;3.33;;
16770;SDS011;8503;52.472;13.344;2022-09-12T05:17:36;3.80;;;2.90;;
16770;SDS011;8503;52.472;13.344;2022-09-12T05:19:00;3.72;;;2.85;;
16770;SDS011;8503;52.472;13.344;2022-09-12T05:20:23;3.30;;;2.55;;
16770;SDS011;8503;52.472;13.344;2022-09-12T05:21:45;5.47;;;2.90;;
16770;SDS011;8503;52.472;13.344;2022-09-12T05:23:09;5.38;;;2.80;;
16770;SDS011;8503;52.472;13.344;2022-09-12T05:24:33;7.25;;;2.85;;
16770;SDS011;8503;52.472;13.344;2022-09-12T05:25:59;3.90;;;3.00;;
16770;SDS011;8503;52.472;13.344;2022-09-12T05:27:22;6.70;;;2.97;;
16770;SDS011;8503;52.472;13.344;2022-09-12T05:28:46;4.40;;;2.70;;
16770;SDS011;8503;52.472;13.344;2022-09-12T05:30:10;5.95;;;2.95;;
16770;SDS011;8503;52.472;13.344;2022-09-12T05:31:34;4.45;;;3.10;;
16770;SDS011;8503;52.472;13.344;2022-09-12T05:32:57;3.80;;;2.72;;
16770;SDS011;8503;52.472;13.344;2022-09-12T05:34:20;3.10;;;2.53;;
16770;SDS011;8503;52.472;13.344;2022-09-12T05:35:49;5.22;;;2.53;;
16770;SDS011;8503;52.472;13.344;2022-09-12T05:37:12;6.10;;;3.28;;
16770;SDS011;8503;52.472;13.344;2022-09-12T05:38:35;6.45;;;2.88;;
16770;SDS011;8503;52.472;13.344;2022-09-12T05:39:59;11.20;;;3.13;;
16770;SDS011;8503;52.472;13.344;2022-09-12T05:41:28;6.43;;;3.33;;
16770;SDS011;8503;52.472;13.344;2022-09-12T05:42:53;5.13;;;3.03;;
16770;SDS011;8503;52.472;13.344;2022-09-12T05:44:16;9.30;;;4.07;;
16770;SDS011;8503;52.472;13.344;2022-09-12T05:45:40;12.30;;;3.83;;
16770;SDS011;8503;52.472;13.344;2022-09-12T05:47:03;4.75;;;2.63;;
16770;SDS011;8503;52.472;13.344;2022-09-12T05:48:27;8.52;;;3.00;;
16770;SDS011;8503;52.472;13.344;2022-09-12T05:49:49;7.65;;;3.15;;
16770;SDS011;8503;52.472;13.344;2022-09-12T05:51:14;3.25;;;2.95;;
16770;SDS011;8503;52.472;13.344;2022-09-12T05:52:39;6.30;;;2.80;;
16770;SDS011;8503;52.472;13.344;2022-09-12T05:54:03;9.98;;;2.90;;
16770;SDS011;8503;52.472;13.344;2022-09-12T05:55:28;6.15;;;3.78;;
16770;SDS011;8503;52.472;13.344;2022-09-12T05:56:51;5.50;;;2.95;;
16770;SDS011;8503;52.472;13.344;2022-09-12T05:58:15;5.35;;;2.75;;
16770;SDS011;8503;52.472;13.344;2022-09-12T05:59:37;5.68;;;3.00;;
16770;SDS011;8503;52.472;13.344;2022-09-12T06:01:03;5.50;;;2.58;;
16770;SDS011;8503;52.472;13.344;2022-09-12T06:02:27;4.45;;;2.55;;
16770;SDS011;8503;52.472;13.344;2022-09-12T06:03:51;5.97;;;3.00;;
16770;SDS011;8503;52.472;13.344;2022-09-12T06:05:16;9.35;;;2.70;;
16770;SDS011;8503;52.472;13.344;2022-09-12T06:06:40;4.50;;;2.88;;
16770;SDS011;8503;52.472;13.344;2022-09-12T06:08:05;11.32;;;3.20;;
16770;SDS011;8503;52.472;13.344;2022-09-12T06:09:27;15.98;;;4.20;;
16770;SDS011;8503;52.472;13.344;2022-09-12T06:10:55;26.00;;;5.22;;
16770;SDS011;8503;52.472;13.344;2022-09-12T06:12:22;8.55;;;3.50;;
16770;SDS011;8503;52.472;13.344;2022-09-12T06:13:46;7.93;;;3.45;;
16770;SDS011;8503;52.472;13.344;2022-09-12T06:15:11;14.98;;;3.97;;
16770;SDS011;8503;52.472;13.344;2022-09-12T06:16:34;35.95;;;6.32;;
16770;SDS011;8503;52.472;13.344;2022-09-12T06:17:58;42.95;;;5.82;;
16770;SDS011;8503;52.472;13.344;2022-09-12T06:19:21;56.70;;;8.57;;
16770;SDS011;8503;52.472;13.344;2022-09-12T06:20:47;40.28;;;7.05;;
16770;SDS011;8503;52.472;13.344;2022-09-12T06:22:10;15.43;;;5.85;;
16770;SDS011;8503;52.472;13.344;2022-09-12T06:23:34;15.40;;;4.47;;
16770;SDS011;8503;52.472;13.344;2022-09-12T06:24:57;7.93;;;3.70;;
16770;SDS011;8503;52.472;13.344;2022-09-12T06:26:22;6.88;;;3.63;;
16770;SDS011;8503;52.472;13.344;2022-09-12T06:27:46;10.88;;;3.60;;
16770;SDS011;8503;52.472;13.344;2022-09-12T06:29:10;17.17;;;5.65;;
16770;SDS011;8503;52.472;13.344;2022-09-12T06:30:34;17.25;;;4.93;;
16770;SDS011;8503;52.472;13.344;2022-09-12T06:31:57;7.40;;;3.45;;
16770;SDS011;8503;52.472;13.344;2022-09-12T06:33:21;5.30;;;3.17;;
16770;SDS011;8503;52.472;13.344;2022-09-12T06:34:45;14.13;;;5.72;;
16770;SDS011;8503;52.472;13.344;2022-09-12T06:36:10;6.78;;;4.75;;
16770;SDS011;8503;52.472;13.344;2022-09-12T06:37:33;5.90;;;3.70;;
16770;SDS011;8503;52.472;13.344;2022-09-12T06:38:57;11.27;;;5.90;;
16770;SDS011;8503;52.472;13.344;2022-09-12T06:40:22;12.77;;;8.05;;
16770;SDS011;8503;52.472;13.344;2022-09-12T06:41:47;7.97;;;3.83;;
16770;SDS011;8503;52.472;13.344;2022-09-12T06:43:12;5.05;;;3.38;;
16770;SDS011;8503;52.472;13.344;2022-09-12T06:44:34;4.78;;;3.15;;
16770;SDS011;8503;52.472;13.344;2022-09-12T06:46:38;7.25;;;3.50;;
16770;SDS011;8503;52.472;13.344;2022-09-12T06:48:02;7.25;;;3.03;;
16770;SDS011;8503;52.472;13.344;2022-09-12T06:49:25;6.13;;;3.25;;
16770;SDS011;8503;52.472;13.344;2022-09-12T06:50:55;8.60;;;3.15;;
16770;SDS011;8503;52.472;13.344;2022-09-12T06:52:18;3.75;;;3.33;;
16770;SDS011;8503;52.472;13.344;2022-09-12T06:53:42;8.25;;;3.30;;
16770;SDS011;8503;52.472;13.344;2022-09-12T06:55:06;8.93;;;4.15;;
16770;SDS011;8503;52.472;13.344;2022-09-12T06:56:30;7.15;;;3.55;;
16770;SDS011;8503;52.472;13.344;2022-09-12T06:57:55;5.15;;;3.08;;
16770;SDS011;8503;52.472;13.344;2022-09-12T06:59:18;5.85;;;3.00;;
16770;SDS011;8503;52.472;13.344;2022-09-12T07:00:43;5.60;;;3.10;;
16770;SDS011;8503;52.472;13.344;2022-09-12T07:02:05;8.55;;;2.92;;
16770;SDS011;8503;52.472;13.344;2022-09-12T07:03:30;10.50;;;4.10;;
16770;SDS011;8503;52.472;13.344;2022-09-12T07:04:54;38.55;;;6.82;;
16770;SDS011;8503;52.472;13.344;2022-09-12T07:06:19;26.98;;;5.43;;
16770;SDS011;8503;52.472;13.344;2022-09-12T07:07:42;53.47;;;9.63;;
16770;SDS011;8503;52.472;13.344;2022-09-12T07:09:06;12.40;;;4.38;;
16770;SDS011;8503;52.472;13.344;2022-09-12T07:10:31;5.47;;;3.13;;
16770;SDS011;8503;52.472;13.344;2022-09-12T07:11:53;6.65;;;2.90;;
16770;SDS011;8503;52.472;13.344;2022-09-12T07:13:18;11.05;;;3.95;;
16770;SDS011;8503;52.472;13.344;2022-09-12T07:14:40;7.97;;;3.65;;
16770;SDS011;8503;52.472;13.344;2022-09-12T07:16:04;7.75;;;2.83;;
16770;SDS011;8503;52.472;13.344;2022-09-12T07:17:28;6.55;;;3.22;;
16770;SDS011;8503;52.472;13.344;2022-09-12T07:18:52;8.82;;;3.47;;
16770;SDS011;8503;52.472;13.344;2022-09-12T07:20:17;4.95;;;3.25;;
16770;SDS011;8503;52.472;13.344;2022-09-12T07:21:40;6.57;;;3.40;;
16770;SDS011;8503;52.472;13.344;2022-09-12T07:23:04;4.00;;;2.92;;
16770;SDS011;8503;52.472;13.344;2022-09-12T07:24:27;4.25;;;3.05;;
16770;SDS011;8503;52.472;13.344;2022-09-12T07:25:51;4.93;;;3.00;;
16770;SDS011;8503;52.472;13.344;2022-09-12T07:27:14;5.53;;;3.20;;
16770;SDS011;8503;52.472;13.344;2022-09-12T07:28:39;4.60;;;2.88;;
16770;SDS011;8503;52.472;13.344;2022-09-12T07:30:03;4.07;;;3.30;;
16770;SDS011;8503;52.472;13.344;2022-09-12T07:31:28;8.82;;;3.22;;
16770;SDS011;8503;52.472;13.344;2022-09-12T07:32:51;7.28;;;2.90;;
16770;SDS011;8503;52.472;13.344;2022-09-12T07:34:15;4.53;;;3.22;;
16770;SDS011;8503;52.472;13.344;2022-09-12T07:35:38;5.80;;;2.80;;
16770;SDS011;8503;52.472;13.344;2022-09-12T07:37:00;4.15;;;2.83;;
16770;SDS011;8503;52.472;13.344;2022-09-12T07:38:24;8.48;;;2.70;;
16770;SDS011;8503;52.472;13.344;2022-09-12T07:39:47;5.45;;;2.55;;
16770;SDS011;8503;52.472;13.344;2022-09-12T07:41:11;4.18;;;2.80;;
16770;SDS011;8503;52.472;13.344;2022-09-12T07:42:34;5.25;;;2.78;;
16770;SDS011;8503;52.472;13.344;2022-09-12T07:43:59;6.45;;;2.50;;
16770;SDS011;8503;52.472;13.344;2022-09-12T07:45:24;4.97;;;2.47;;
16770;SDS011;8503;52.472;13.344;2022-09-12T07:46:48;5.78;;;2.60;;
16770;SDS011;8503;52.472;13.344;2022-09-12T07:48:12;3.83;;;2.83;;
16770;SDS011;8503;52.472;13.344;2022-09-12T07:49:36;3.58;;;2.50;;
16770;SDS011;8503;52.472;13.344;2022-09-12T07:51:00;3.63;;;2.67;;
16770;SDS011;8503;52.472;13.344;2022-09-12T07:52:24;3.22;;;2.22;;
16770;SDS011;8503;52.472;13.344;2022-09-12T07:53:48;2.72;;;2.30;;
16770;SDS011;8503;52.472;13.344;2022-09-12T07:55:11;3.03;;;2.20;;
16770;SDS011;8503;52.472;13.344;2022-09-12T07:56:35;7.03;;;2.20;;
16770;SDS011;8503;52.472;13.344;2022-09-12T07:57:59;7.18;;;3.38;;
16770;SDS011;8503;52.472;13.344;2022-09-12T07:59:25;4.90;;;4.00;;
16770;SDS011;8503;52.472;13.344;2022-09-12T08:01:09;9.30;;;4.65;;
16770;SDS011;8503;52.472;13.344;2022-09-12T08:02:33;2.28;;;1.98;;
16770;SDS011;8503;52.472;13.344;2022-09-12T08:03:57;2.67;;;2.17;;
16770;SDS011;8503;52.472;13.344;2022-09-12T08:05:21;11.63;;;7.47;;
16770;SDS011;8503;52.472;13.344;2022-09-12T08:06:45;7.13;;;4.70;;
16770;SDS011;8503;52.472;13.344;2022-09-12T08:08:09;7.32;;;4.60;;
16770;SDS011;8503;52.472;13.344;2022-09-12T08:09:32;7.63;;;2.65;;
16770;SDS011;8503;52.472;13.344;2022-09-12T08:10:56;2.97;;;2.03;;
16770;SDS011;8503;52.472;13.344;2022-09-12T08:12:18;5.15;;;3.40;;
16770;SDS011;8503;52.472;13.344;2022-09-12T08:13:42;4.75;;;3.08;;
16770;SDS011;8503;52.472;13.344;2022-09-12T08:15:07;7.45;;;3.33;;
16770;SDS011;8503;52.472;13.344;2022-09-12T08:16:31;5.57;;;3.65;;
16770;SDS011;8503;52.472;13.344;2022-09-12T08:17:55;3.13;;;2.83;;
16770;SDS011;8503;52.472;13.344;2022-09-12T08:19:19;4.15;;;2.28;;
16770;SDS011;8503;52.472;13.344;2022-09-12T08:20:43;3.47;;;2.30;;
16770;SDS011;8503;52.472;13.344;2022-09-12T08:22:06;4.03;;;2.00;;
16770;SDS011;8503;52.472;13.344;2022-09-12T08:23:30;2.30;;;1.92;;
16770;SDS011;8503;52.472;13.344;2022-09-12T08:24:53;4.15;;;1.90;;
16770;SDS011;8503;52.472;13.344;2022-09-12T08:26:17;7.68;;;2.67;;
16770;SDS011;8503;52.472;13.344;2022-09-12T08:27:40;5.90;;;2.13;;
16770;SDS011;8503;52.472;13.344;2022-09-12T08:29:04;4.40;;;1.77;;
16770;SDS011;8503;52.472;13.344;2022-09-12T08:30:28;2.22;;;1.70;;
16770;SDS011;8503;52.472;13.344;2022-09-12T08:31:52;3.70;;;1.98;;
16770;SDS011;8503;52.472;13.344;2022-09-12T08:33:17;3.33;;;2.20;;
16770;SDS011;8503;52.472;13.344;2022-09-12T08:34:41;3.47;;;2.28;;
16770;SDS011;8503;52.472;13.344;2022-09-12T08:36:04;5.30;;;3.92;;